Time;durP1;ratioP1;P1;durP2;ratioP2;P2;SDS_P1;SDS_P2;PMS_P1;PMS_P2;Temp;Humidity;BMP_temperature;BMP_pressure;BME280_temperature;BME280_humidity;BME280_pressure;Samples;Min_cycle;Max_cycle;Signal;HPM_P1;HPM_P2
2022/07/29 00:01:35;;;;;;;677.87;334.03;;;13.40;1.00;;;;;;4937750;29;20202;-83
2022/07/29 00:04:02;;;;;;;645.47;262.53;;;13.30;1.00;;;;;;4937284;29;20194;-83
2022/07/29 00:06:29;;;;;;;647.60;290.37;;;13.30;1.00;;;;;;4937492;29;20195;-83
2022/07/29 00:08:57;;;;;;;642.17;287.40;;;13.20;1.00;;;;;;4937392;29;20203;-83
2022/07/29 00:11:24;;;;;;;670.03;326.93;;;13.20;1.00;;;;;;4937031;29;20241;-85
2022/07/29 00:13:51;;;;;;;672.50;327.67;;;13.10;1.00;;;;;;4937315;29;20203;-83
2022/07/29 00:16:18;;;;;;;480.03;226.03;;;13.10;1.00;;;;;;4937743;29;20250;-83
2022/07/29 00:18:46;;;;;;;637.73;266.33;;;13.00;1.00;;;;;;4937045;29;20198;-82
2022/07/29 00:21:13;;;;;;;680.43;340.07;;;13.00;1.00;;;;;;4937341;29;20227;-84
2022/07/29 00:23:40;;;;;;;488.80;235.13;;;12.90;1.00;;;;;;4936729;29;20629;-84
2022/07/29 00:26:08;;;;;;;662.27;320.77;;;12.90;99.90;;;;;;4936804;29;20203;-83
2022/07/29 00:28:35;;;;;;;659.33;297.93;;;12.90;99.90;;;;;;4936863;29;20202;-85
2022/07/29 00:31:02;;;;;;;655.57;272.97;;;12.90;99.90;;;;;;4937060;29;20211;-83
2022/07/29 00:33:30;;;;;;;673.53;315.70;;;12.90;99.90;;;;;;4937268;29;20194;-84
2022/07/29 00:35:56;;;;;;;674.53;342.00;;;13.00;1.00;;;;;;4937055;29;20217;-87
2022/07/29 00:38:44;;;;;;;678.83;303.43;;;13.00;1.00;;;;;;4936564;29;20193;-88
2022/07/29 00:41:12;;;;;;;658.43;284.20;;;13.10;1.00;;;;;;4937009;29;20674;-82
2022/07/29 00:43:40;;;;;;;645.17;285.30;;;13.10;1.00;;;;;;4923437;29;20258;-84
2022/07/29 00:46:08;;;;;;;676.20;290.97;;;13.10;1.00;;;;;;4936636;29;20659;-84
2022/07/29 00:48:35;;;;;;;663.93;256.80;;;13.10;1.00;;;;;;4936780;29;20197;-83
2022/07/29 00:51:03;;;;;;;488.13;211.73;;;13.10;1.00;;;;;;4936774;29;20202;-83
2022/07/29 00:53:31;;;;;;;670.50;334.97;;;13.20;1.00;;;;;;4936127;29;20194;-84
2022/07/29 00:55:58;;;;;;;668.80;272.80;;;13.10;1.00;;;;;;4936810;29;20194;-83
2022/07/29 00:58:27;;;;;;;678.67;300.40;;;13.10;1.00;;;;;;4936360;29;20198;-83
2022/07/29 01:00:54;;;;;;;670.97;267.87;;;13.10;1.00;;;;;;4936302;29;20285;-84
2022/07/29 01:03:21;;;;;;;662.17;293.40;;;13.10;1.00;;;;;;4936594;29;20199;-85
2022/07/29 01:05:48;;;;;;;490.10;223.33;;;13.20;10.30;;;;;;4936235;29;20202;-85
2022/07/29 01:08:16;;;;;;;673.13;308.53;;;13.10;99.90;;;;;;4936074;29;20203;-83
2022/07/29 01:10:45;;;;;;;650.60;269.80;;;13.20;99.90;;;;;;4936448;29;20230;-82
2022/07/29 01:13:12;;;;;;;668.87;314.10;;;13.20;99.90;;;;;;4936677;29;20198;-82
2022/07/29 01:15:44;;;;;;;660.40;218.10;;;13.20;99.90;;;;;;4936160;29;20297;-84
2022/07/29 01:18:17;;;;;;;654.00;312.60;;;13.20;1.00;;;;;;4936443;29;20194;-83
2022/07/29 01:21:04;;;;;;;656.60;184.37;;;13.30;1.00;;;;;;4936172;29;20206;-85
2022/07/29 01:24:12;;;;;;;650.97;139.30;;;13.30;99.90;;;;;;4936166;29;20195;-85
2022/07/29 01:26:46;;;;;;;647.33;146.37;;;13.40;99.90;;;;;;4898619;29;20198;-83
2022/07/29 01:29:25;;;;;;;643.87;169.37;;;13.50;1.00;;;;;;4936235;29;20205;-84
2022/07/29 01:31:57;;;;;;;648.03;187.50;;;13.50;99.90;;;;;;4933464;29;20199;-83
2022/07/29 01:34:30;;;;;;;650.67;203.20;;;13.60;99.90;;;;;;4936442;29;20215;-84
2022/07/29 01:37:05;;;;;;;663.60;236.33;;;13.60;99.90;;;;;;4923372;29;20197;-84
2022/07/29 01:39:34;;;;;;;650.00;159.17;;;13.70;99.90;;;;;;4935938;29;20203;-86
2022/07/29 01:42:08;;;;;;;654.10;208.53;;;13.70;1.00;;;;;;4935641;29;20250;-84
2022/07/29 01:44:42;;;;;;;661.20;235.97;;;13.80;1.00;;;;;;4936128;29;20200;-85
2022/07/29 01:47:15;;;;;;;655.10;188.57;;;13.80;1.00;;;;;;4923305;29;20198;-86
2022/07/29 01:49:49;;;;;;;649.03;154.97;;;13.80;99.90;;;;;;4935898;29;20199;-84
2022/07/29 01:52:22;;;;;;;638.00;150.57;;;13.90;99.90;;;;;;4935999;29;20260;-82
2022/07/29 01:54:56;;;;;;;643.27;149.50;;;13.90;99.90;;;;;;4936081;29;20198;-82
2022/07/29 01:57:28;;;;;;;640.93;151.50;;;13.90;1.00;;;;;;4935907;29;20192;-85
2022/07/29 01:59:59;;;;;;;648.03;157.03;;;13.90;99.90;;;;;;4935559;29;20211;-85
2022/07/29 02:02:28;;;;;;;469.03;106.93;;;13.90;99.90;;;;;;4922707;29;20556;-83
2022/07/29 02:04:56;;;;;;;645.90;148.20;;;13.90;1.00;;;;;;4935471;29;20199;-84
2022/07/29 02:07:26;;;;;;;644.27;147.70;;;13.90;58.30;;;;;;4935041;29;20653;-84
2022/07/29 02:09:54;;;;;;;651.97;181.77;;;13.90;1.00;;;;;;4934944;29;20235;-84
2022/07/29 02:12:22;;;;;;;644.07;161.67;;;14.00;1.00;;;;;;4935549;29;20253;-83
2022/07/29 02:14:53;;;;;;;647.47;174.43;;;13.90;1.00;;;;;;4935626;29;20202;-84
2022/07/29 02:17:25;;;;;;;643.63;160.73;;;14.00;99.90;;;;;;4935582;29;20189;-82
2022/07/29 02:19:55;;;;;;;646.90;156.53;;;14.00;99.90;;;;;;4934842;29;20572;-86
2022/07/29 02:22:24;;;;;;;648.47;201.73;;;14.00;1.00;;;;;;4935221;29;20271;-84
2022/07/29 02:24:52;;;;;;;642.00;157.87;;;14.00;1.00;;;;;;4933778;29;20198;-84
2022/07/29 02:27:20;;;;;;;647.90;206.27;;;14.00;99.90;;;;;;4934991;29;20566;-82
2022/07/29 02:29:49;;;;;;;656.93;189.23;;;14.00;99.90;;;;;;4934969;29;20664;-82
2022/07/29 02:32:18;;;;;;;466.37;113.07;;;14.00;11.60;;;;;;4934856;29;20207;-84
2022/07/29 02:34:48;;;;;;;645.10;145.40;;;14.00;1.00;;;;;;4934784;29;20225;-84
2022/07/29 02:37:18;;;;;;;625.10;157.77;;;14.10;1.00;;;;;;4935045;29;20210;-84
2022/07/29 02:39:46;;;;;;;608.30;173.87;;;14.00;1.00;;;;;;4934791;29;20204;-83
2022/07/29 02:42:16;;;;;;;417.70;171.70;;;14.10;99.90;;;;;;4935152;29;20251;-84
2022/07/29 02:44:44;;;;;;;565.87;227.37;;;14.00;1.00;;;;;;4934960;29;20201;-83
2022/07/29 02:47:17;;;;;;;561.57;233.67;;;14.10;99.90;;;;;;4921977;29;20221;-85
2022/07/29 02:49:53;;;;;;;29.33;26.77;;;14.10;1.00;;;;;;4935261;29;20650;-83
2022/07/29 02:52:27;;;;;;;28.40;24.60;;;14.00;99.90;;;;;;4934989;29;20201;-83
2022/07/29 02:54:57;;;;;;;26.43;23.97;;;14.00;1.00;;;;;;4934954;29;20653;-85
2022/07/29 02:57:44;;;;;;;25.87;23.57;;;14.00;99.90;;;;;;4935221;29;20193;-84
2022/07/29 03:00:12;;;;;;;26.83;24.43;;;14.00;1.00;;;;;;4934871;29;20211;-83
2022/07/29 03:02:41;;;;;;;27.23;24.87;;;14.00;99.90;;;;;;4935080;29;20207;-86
2022/07/29 03:05:16;;;;;;;26.73;24.33;;;14.00;1.00;;;;;;4934806;29;20208;-84
2022/07/29 03:07:46;;;;;;;28.93;26.10;;;14.00;1.00;;;;;;4922299;29;20555;-83
2022/07/29 03:10:14;;;;;;;29.10;26.43;;;14.00;1.00;;;;;;4934935;29;20240;-83
2022/07/29 03:12:41;;;;;;;28.10;25.60;;;13.90;1.00;;;;;;4934628;29;20608;-84
2022/07/29 03:15:10;;;;;;;27.30;24.93;;;13.90;1.00;;;;;;4935073;29;20205;-83
2022/07/29 03:17:38;;;;;;;29.13;26.57;;;13.90;99.90;;;;;;4934901;29;20207;-84
2022/07/29 03:20:15;;;;;;;28.43;25.90;;;13.90;1.00;;;;;;4940964;29;20248;-87
2022/07/29 03:22:47;;;;;;;27.90;25.53;;;13.90;1.00;;;;;;4941521;29;20182;-88
2022/07/29 03:25:16;;;;;;;28.10;25.57;;;13.90;99.90;;;;;;4953172;29;20232;-89
2022/07/29 03:27:49;;;;;;;26.93;24.43;;;13.90;1.00;;;;;;4943672;29;20197;-87
2022/07/29 03:30:31;;;;;;;28.47;25.80;;;13.90;99.90;;;;;;4958029;29;20214;-90
2022/07/29 03:33:11;;;;;;;29.30;26.53;;;13.90;1.00;;;;;;4961752;29;20200;-89
2022/07/29 03:35:53;;;;;;;27.23;24.77;;;13.90;1.00;;;;;;4960058;29;20219;-89
2022/07/29 03:38:46;;;;;;;26.63;24.00;;;13.90;1.00;;;;;;4961561;28;20201;-89
2022/07/29 03:47:33;;;;;;;28.57;26.10;;;13.90;1.00;;;;;;4951018;29;20182;-87
2022/07/29 03:50:51;;;;;;;29.40;26.83;;;14.00;1.00;;;;;;4957799;29;20235;-89
2022/07/29 03:53:58;;;;;;;28.10;25.50;;;14.00;1.00;;;;;;4954233;28;20257;-88
2022/07/29 03:56:37;;;;;;;26.40;24.03;;;14.00;1.00;;;;;;4961714;29;20185;-88
2022/07/29 04:02:21;;;;;;;28.87;26.37;;;14.10;1.00;;;;;;4957341;29;20205;-88
2022/07/29 04:05:14;;;;;;;29.27;26.47;;;14.10;1.00;;;;;;4956325;29;20198;-86
2022/07/29 04:07:46;;;;;;;28.70;26.10;;;14.30;1.00;;;;;;4949158;29;20202;-87
2022/07/29 04:10:18;;;;;;;27.80;25.33;;;14.30;99.90;;;;;;4957604;29;20757;-86
2022/07/29 04:13:23;;;;;;;25.20;22.27;;;14.30;99.90;;;;;;4949546;29;20219;-92
2022/07/29 04:16:01;;;;;;;27.20;24.73;;;14.30;99.90;;;;;;4959126;29;20201;-88
2022/07/29 04:18:52;;;;;;;;;;;14.50;1.00;;;;;;5005196;23;20240;-87
2022/07/29 04:27:59;;;;;;;30.23;27.47;;;16.00;99.90;;;;;;4904863;29;20181;-89
2022/07/29 04:30:33;;;;;;;31.67;28.97;;;16.60;1.00;;;;;;4939700;29;20226;-89
2022/07/29 04:33:20;;;;;;;31.37;28.67;;;16.80;99.90;;;;;;4923991;29;20266;-88
2022/07/29 04:38:59;;;;;;;29.20;26.63;;;16.70;1.00;;;;;;4929631;29;20263;-87
2022/07/29 04:44:28;;;;;;;29.50;26.83;;;16.50;1.00;;;;;;4961164;28;20212;-88
2022/07/29 04:50:33;;;;;;;23.67;21.40;;;17.50;1.00;;;;;;4940026;29;20205;-88
2022/07/29 04:59:28;;;;;;;;;;;;;;;;;;;;;
2022/07/29 05:01:58;;;;;;;728.70;444.10;;;20.60;1.00;;;;;;4972735;29;20222;-88
2022/07/29 05:07:47;;;;;;;742.85;503.60;;;21.70;1.00;;;;;;4979262;29;20213;-87
2022/07/29 05:10:19;;;;;;;751.15;547.83;;;22.30;1.00;;;;;;4969760;29;20197;-88
2022/07/29 05:12:57;;;;;;;760.72;573.75;;;22.80;1.00;;;;;;4979212;29;20208;-90
2022/07/29 05:15:27;;;;;;;771.65;603.83;;;23.20;99.90;;;;;;4960433;28;20277;-91
2022/07/29 05:18:07;;;;;;;777.20;631.35;;;23.60;1.00;;;;;;4949975;28;20224;-87
2022/07/29 05:20:46;;;;;;;785.25;654.55;;;24.20;1.00;;;;;;4961199;29;20078;-87
2022/07/29 05:23:20;;;;;;;;;;;24.90;1.00;;;;;;4947972;29;20061;-85
2022/07/29 05:29:23;;;;;;;779.47;679.42;;;25.50;1.00;;;;;;4934385;29;20205;-89
2022/07/29 05:32:26;;;;;;;;;;;;;;;;;;;;;
2022/07/29 05:35:22;;;;;;;756.97;664.60;;;26.20;1.00;;;;;;4941942;29;20227;-89
2022/07/29 05:38:50;;;;;;;;;;;;;;;;;;;;;
2022/07/29 05:41:35;;;;;;;755.47;660.67;;;26.10;99.90;;;;;;4897954;29;20226;-85
2022/07/29 05:44:02;;;;;;;763.88;679.95;;;26.30;99.90;;;;;;4868061;29;20226;-86
2022/07/29 05:46:29;;;;;;;780.20;695.85;;;26.50;99.90;;;;;;4876930;29;20541;-83
2022/07/29 05:48:56;;;;;;;792.33;707.58;;;26.60;99.90;;;;;;4906352;29;20203;-85
2022/07/29 05:51:24;;;;;;;791.40;706.40;;;26.70;99.90;;;;;;4942040;29;20193;-85
2022/07/29 05:53:51;;;;;;;799.42;714.40;;;26.80;99.90;;;;;;4937430;29;20244;-86
2022/07/29 05:56:21;;;;;;;800.05;715.35;;;26.80;99.90;;;;;;4950001;29;20220;-89
2022/07/29 05:59:01;;;;;;;814.65;729.33;;;26.70;99.90;;;;;;4954684;28;20204;-87
2022/07/29 06:02:09;;;;;;;802.95;717.88;;;26.50;99.90;;;;;;4945938;29;20217;-84
2022/07/29 06:08:20;;;;;;;;;;;;;;;;;;;;;
2022/07/29 06:11:31;;;;;;;;;;;;;;;;;;;;;
2022/07/29 06:17:53;;;;;;;764.67;680.40;;;25.40;99.90;;;;;;4871167;29;20286;-84
2022/07/29 06:30:47;;;;;;;;;;;24.70;99.90;;;;;;4754980;30;20063;-85
2022/07/29 06:33:19;;;;;;;725.97;596.73;;;24.30;99.90;;;;;;4811818;29;20203;-83
2022/07/29 06:35:47;;;;;;;737.10;605.53;;;23.80;99.90;;;;;;4893333;29;20201;-84
2022/07/29 06:38:14;;;;;;;734.37;612.90;;;23.50;99.90;;;;;;4934979;29;20203;-84
2022/07/29 06:41:02;;;;;;;723.47;598.33;;;23.20;99.90;;;;;;4935374;29;20647;-85
2022/07/29 06:43:33;;;;;;;700.60;550.63;;;23.00;99.90;;;;;;4936142;29;20718;-84
2022/07/29 06:46:02;;;;;;;718.67;573.30;;;22.70;99.90;;;;;;4934367;29;20253;-82
2022/07/29 06:48:29;;;;;;;696.50;527.50;;;22.50;99.90;;;;;;4934569;29;20610;-82
2022/07/29 06:50:57;;;;;;;706.43;551.07;;;22.40;99.90;;;;;;4934713;29;20223;-83
2022/07/29 06:53:24;;;;;;;720.00;600.57;;;22.30;99.90;;;;;;4936614;29;20193;-82
2022/07/29 06:55:53;;;;;;;721.57;589.27;;;22.30;99.90;;;;;;4934942;29;20212;-84
2022/07/29 06:58:20;;;;;;;707.57;558.67;;;22.30;1.00;;;;;;4934494;29;20201;-82
2022/07/29 07:00:47;;;;;;;699.47;536.13;;;22.40;1.00;;;;;;4934520;29;20201;-83
2022/07/29 07:03:14;;;;;;;716.80;567.80;;;22.50;1.00;;;;;;4933995;29;20208;-83
2022/07/29 07:05:42;;;;;;;712.43;571.53;;;22.90;1.00;;;;;;4935101;29;20208;-86
2022/07/29 07:08:09;;;;;;;712.03;569.10;;;23.00;1.00;;;;;;4938298;29;20204;-86
2022/07/29 07:10:36;;;;;;;706.90;565.77;;;23.10;1.00;;;;;;4935422;29;20299;-84
2022/07/29 07:13:06;;;;;;;706.20;560.90;;;23.40;1.00;;;;;;4940102;29;20201;-86
2022/07/29 07:15:33;;;;;;;736.43;614.90;;;23.90;1.00;;;;;;4938044;29;20193;-85
2022/07/29 07:18:00;;;;;;;740.87;636.03;;;24.60;1.00;;;;;;4938046;29;20701;-84
2022/07/29 07:20:28;;;;;;;737.10;635.53;;;25.00;1.00;;;;;;4947408;29;20261;-86
2022/07/29 07:22:55;;;;;;;739.93;646.30;;;25.20;99.90;;;;;;4956994;28;20220;-82
2022/07/29 07:25:22;;;;;;;739.47;629.60;;;25.20;99.90;;;;;;4941321;28;20248;-84
2022/07/29 07:27:49;;;;;;;734.30;639.90;;;25.20;99.90;;;;;;4932780;29;20678;-85
2022/07/29 07:30:18;;;;;;;742.53;658.03;;;25.10;99.90;;;;;;4937903;29;20613;-85
2022/07/29 07:32:45;;;;;;;725.77;612.90;;;24.80;99.90;;;;;;4945113;29;20201;-83
2022/07/29 07:35:12;;;;;;;760.70;677.40;;;24.60;99.90;;;;;;4957268;28;20199;-86
2022/07/29 07:37:41;;;;;;;736.77;642.67;;;24.50;99.90;;;;;;4941517;28;20603;-83
2022/07/29 07:40:11;;;;;;;739.13;643.30;;;24.40;99.90;;;;;;4937941;29;20613;-85
2022/07/29 07:42:38;;;;;;;745.90;649.80;;;24.40;99.90;;;;;;4937452;29;20227;-84
2022/07/29 07:45:06;;;;;;;743.07;654.10;;;24.60;99.90;;;;;;4937549;29;20200;-85
2022/07/29 07:47:35;;;;;;;747.43;647.53;;;24.80;99.90;;;;;;4937532;29;20200;-85
2022/07/29 07:50:03;;;;;;;740.87;633.30;;;24.80;99.90;;;;;;4939811;29;20196;-84
2022/07/29 07:52:30;;;;;;;747.90;643.30;;;24.80;99.90;;;;;;4937365;29;20193;-83
2022/07/29 07:54:57;;;;;;;740.20;633.30;;;25.00;99.90;;;;;;4937060;29;20571;-84
2022/07/29 07:57:24;;;;;;;748.63;664.57;;;25.00;99.90;;;;;;4945250;29;20200;-85
2022/07/29 07:59:51;;;;;;;748.93;664.00;;;25.30;99.90;;;;;;4942199;28;20324;-85
2022/07/29 08:02:19;;;;;;;748.50;662.07;;;25.90;99.90;;;;;;4934498;29;20217;-85
2022/07/29 08:04:47;;;;;;;744.77;647.60;;;26.40;99.90;;;;;;4937379;29;20204;-85
2022/07/29 08:07:15;;;;;;;759.77;646.63;;;26.80;99.90;;;;;;4937854;29;20193;-84
2022/07/29 08:09:42;;;;;;;758.23;662.47;;;27.20;99.90;;;;;;4937104;29;20524;-84
2022/07/29 08:12:09;;;;;;;757.53;638.57;;;27.10;99.90;;;;;;4934243;29;20610;-84
2022/07/29 08:14:36;;;;;;;770.97;647.63;;;27.20;99.90;;;;;;4938472;29;20204;-83
2022/07/29 08:17:04;;;;;;;779.90;694.27;;;27.30;99.90;;;;;;4935493;29;20233;-85
2022/07/29 08:19:31;;;;;;;779.03;686.47;;;27.20;99.90;;;;;;4939272;29;20193;-83
2022/07/29 08:21:59;;;;;;;765.60;684.50;;;27.00;99.90;;;;;;4938980;29;20217;-84
2022/07/29 08:27:17;;;;;;;780.60;698.40;;;26.30;99.90;;;;;;4924082;29;20693;-84
2022/07/29 08:29:44;;;;;;;778.00;695.90;;;25.90;99.90;;;;;;4938399;29;20201;-83
2022/07/29 08:32:11;;;;;;;784.47;700.97;;;25.60;99.90;;;;;;4939592;29;20205;-84
2022/07/29 08:34:39;;;;;;;782.97;699.30;;;25.40;99.90;;;;;;4937611;29;20276;-83
2022/07/29 08:37:07;;;;;;;767.00;683.83;;;25.40;99.90;;;;;;4938907;29;20193;-84
2022/07/29 08:39:34;;;;;;;765.53;680.33;;;25.30;99.90;;;;;;4935939;29;20212;-84
2022/07/29 08:42:02;;;;;;;749.27;666.97;;;25.60;99.90;;;;;;4933784;29;20342;-83
2022/07/29 08:44:29;;;;;;;776.33;692.20;;;26.20;99.90;;;;;;4933768;29;20196;-83
2022/07/29 08:46:56;;;;;;;;;;;26.80;99.90;;;;;;4936313;29;20563;-83
2022/07/29 08:49:23;;;;;;;;;;;27.70;99.90;;;;;;4943322;29;20110;-83
2022/07/29 08:51:50;;;;;;;772.37;691.10;;;28.20;99.90;;;;;;4936234;29;20201;-82
2022/07/29 08:54:22;;;;;;;772.97;690.87;;;28.20;99.90;;;;;;4942678;29;20248;-85
2022/07/29 08:56:50;;;;;;;786.60;704.63;;;28.20;99.90;;;;;;4938243;29;20189;-83
2022/07/29 08:59:21;;;;;;;799.00;715.57;;;28.00;99.90;;;;;;4946598;29;20273;-83
2022/07/29 09:01:49;;;;;;;797.17;715.03;;;27.70;99.90;;;;;;4949532;29;20276;-84
2022/07/29 09:04:31;;;;;;;793.00;710.90;;;27.50;99.90;;;;;;4937490;29;20198;-88
2022/07/29 09:07:05;;;;;;;777.17;695.10;;;27.30;99.90;;;;;;4929613;29;20262;-85
2022/07/29 09:09:34;;;;;;;763.33;682.90;;;27.20;99.90;;;;;;4940468;29;20271;-90
2022/07/29 09:12:03;;;;;;;764.13;683.33;;;27.60;99.90;;;;;;4958681;29;20201;-83
2022/07/29 09:14:38;;;;;;;781.17;700.20;;;28.10;99.90;;;;;;4950625;28;20255;-87
2022/07/29 09:17:05;;;;;;;822.43;738.87;;;28.80;99.90;;;;;;4923275;29;20237;-82
2022/07/29 09:19:34;;;;;;;;;;;29.60;99.90;;;;;;4934048;29;20493;-84
2022/07/29 09:22:02;;;;;;;;;;;30.30;99.90;;;;;;4935383;29;19961;-83
2022/07/29 09:24:41;;;;;;;;;;;30.10;99.90;;;;;;4932856;29;19986;-88
2022/07/29 09:27:20;;;;;;;823.23;737.80;;;30.20;99.90;;;;;;4936164;29;20281;-83
2022/07/29 09:29:47;;;;;;;;;;;30.50;99.90;;;;;;4935595;29;20280;-84
2022/07/29 09:32:14;;;;;;;;;;;30.50;99.90;;;;;;4947084;29;19926;-84
2022/07/29 09:34:41;;;;;;;;;;;30.90;99.90;;;;;;4955726;29;19930;-83
2022/07/29 09:37:41;;;;;;;;;;;31.00;99.90;;;;;;4956160;29;19930;-86
2022/07/29 09:43:54;;;;;;;781.90;697.10;;;30.90;99.90;;;;;;4780850;30;20223;-88
2022/07/29 09:46:21;;;;;;;806.23;720.47;;;30.70;99.90;;;;;;4848089;29;20211;-84
2022/07/29 09:49:09;;;;;;;772.53;688.63;;;30.60;99.90;;;;;;4900791;29;20203;-87
2022/07/29 09:51:37;;;;;;;791.00;705.33;;;30.00;99.90;;;;;;4906660;29;20606;-87
2022/07/29 09:54:36;;;;;;;752.83;649.17;;;29.50;99.90;;;;;;4917533;29;20209;-88
2022/07/29 10:00:00;;;;;;;757.07;665.07;;;28.40;99.90;;;;;;4935188;29;20228;-87
2022/07/29 10:02:40;;;;;;;749.20;661.77;;;28.10;99.90;;;;;;4923104;29;20214;-85
2022/07/29 10:05:19;;;;;;;835.57;749.40;;;27.90;99.90;;;;;;4944949;29;20207;-86
2022/07/29 10:07:48;;;;;;;839.23;753.73;;;27.60;99.90;;;;;;4929788;29;20286;-86
2022/07/29 10:10:21;;;;;;;836.53;751.40;;;27.40;99.90;;;;;;4934632;29;20566;-84
2022/07/29 10:12:57;;;;;;;814.87;730.53;;;27.40;99.90;;;;;;4934918;29;20267;-84
2022/07/29 10:15:31;;;;;;;825.43;740.90;;;27.40;99.90;;;;;;4928513;29;20188;-85
2022/07/29 10:18:00;;;;;;;800.97;716.27;;;27.30;99.90;;;;;;4921151;29;20238;-83
2022/07/29 10:20:28;;;;;;;811.23;727.57;;;27.30;99.90;;;;;;4919963;29;20194;-83
2022/07/29 10:22:56;;;;;;;808.00;724.30;;;27.30;99.90;;;;;;4916069;29;20294;-85
2022/07/29 10:25:24;;;;;;;806.53;722.63;;;27.20;99.90;;;;;;4933677;29;20189;-84
2022/07/29 10:27:52;;;;;;;797.57;714.30;;;27.40;99.90;;;;;;4935532;29;20229;-85
2022/07/29 10:30:21;;;;;;;806.73;723.20;;;27.70;99.90;;;;;;4934123;29;20654;-84
2022/07/29 10:33:14;;;;;;;805.97;721.73;;;27.90;99.90;;;;;;4937314;29;20227;-84
2022/07/29 10:36:08;;;;;;;803.90;720.33;;;27.80;99.90;;;;;;4934625;29;20654;-84
2022/07/29 10:38:50;;;;;;;805.67;720.80;;;27.70;99.90;;;;;;4941645;29;20560;-83
2022/07/29 10:41:38;;;;;;;811.63;727.07;;;27.70;99.90;;;;;;4933300;29;20196;-84
2022/07/29 10:44:09;;;;;;;790.07;705.93;;;27.70;99.90;;;;;;4925663;29;20209;-83
2022/07/29 10:46:37;;;;;;;798.07;714.03;;;27.80;99.90;;;;;;4934523;29;20604;-84
2022/07/29 10:49:21;;;;;;;822.67;737.90;;;27.70;99.90;;;;;;4945255;29;20197;-86
2022/07/29 10:51:56;;;;;;;802.97;719.47;;;27.70;99.90;;;;;;4945990;29;20205;-83
2022/07/29 10:54:44;;;;;;;809.73;726.63;;;27.70;99.90;;;;;;4933993;29;20320;-85
2022/07/29 10:57:21;;;;;;;829.67;744.93;;;27.90;99.90;;;;;;4937739;29;20197;-87
2022/07/29 10:59:49;;;;;;;806.73;723.03;;;27.90;99.90;;;;;;4936783;29;20244;-82
2022/07/29 11:02:44;;;;;;;837.87;752.57;;;27.90;99.90;;;;;;4934398;29;20420;-83
2022/07/29 11:05:14;;;;;;;816.73;732.13;;;27.90;99.90;;;;;;4925091;29;20201;-81
2022/07/29 11:08:22;;;;;;;811.10;726.40;;;27.90;99.90;;;;;;4934054;29;20655;-82
2022/07/29 11:10:51;;;;;;;809.77;724.77;;;28.00;99.90;;;;;;4935169;29;20635;-88
2022/07/29 11:13:50;;;;;;;818.60;733.57;;;28.10;99.90;;;;;;4934425;29;20213;-86
2022/07/29 11:16:18;;;;;;;841.87;755.20;;;28.30;99.90;;;;;;4932983;29;20216;-88
2022/07/29 11:19:20;;;;;;;789.67;703.87;;;28.30;99.90;;;;;;4935377;29;20566;-86
2022/07/29 11:21:49;;;;;;;745.17;655.17;;;28.40;99.90;;;;;;4933557;29;20201;-83
2022/07/29 11:24:23;;;;;;;786.77;703.70;;;28.30;99.90;;;;;;4927996;29;20221;-83
2022/07/29 11:27:15;;;;;;;781.97;696.60;;;28.20;99.90;;;;;;4934015;29;20217;-84
2022/07/29 11:29:51;;;;;;;798.43;714.17;;;28.20;99.90;;;;;;4921774;29;20277;-83
2022/07/29 11:32:19;;;;;;;757.30;667.50;;;28.30;99.90;;;;;;4935518;29;20189;-83
2022/07/29 11:34:48;;;;;;;712.70;546.57;;;28.30;99.90;;;;;;4934491;29;20189;-83
2022/07/29 11:37:21;;;;;;;799.23;715.10;;;28.30;99.90;;;;;;4932838;29;20204;-84
2022/07/29 11:40:08;;;;;;;714.13;568.40;;;28.30;99.90;;;;;;4934917;29;20193;-86
2022/07/29 11:42:46;;;;;;;755.23;657.37;;;28.20;99.90;;;;;;4927135;29;20211;-85
2022/07/29 11:45:23;;;;;;;776.97;692.00;;;28.10;99.90;;;;;;4933992;29;20185;-84
2022/07/29 11:47:57;;;;;;;668.10;407.13;;;27.70;99.90;;;;;;4936261;29;20192;-84
2022/07/29 11:50:33;;;;;;;635.97;350.10;;;27.50;99.90;;;;;;4931652;29;20198;-83
2022/07/29 11:53:02;;;;;;;623.47;364.37;;;27.50;99.90;;;;;;4935685;29;20196;-83
2022/07/29 11:55:31;;;;;;;610.00;368.17;;;27.40;99.90;;;;;;4936363;29;20205;-84
2022/07/29 11:58:01;;;;;;;610.97;362.23;;;27.40;99.90;;;;;;4936963;29;20197;-84
2022/07/29 12:00:30;;;;;;;610.50;355.67;;;27.30;99.90;;;;;;4936850;29;20216;-84
2022/07/29 12:02:59;;;;;;;609.37;348.30;;;27.30;99.90;;;;;;4940430;29;20220;-83
2022/07/29 12:05:37;;;;;;;611.00;344.00;;;27.30;99.90;;;;;;4938126;29;20197;-83
2022/07/29 12:08:14;;;;;;;620.30;345.80;;;27.30;99.90;;;;;;4927754;29;20231;-84
2022/07/29 12:10:43;;;;;;;692.83;475.33;;;27.30;99.90;;;;;;4936164;29;20200;-82
2022/07/29 12:13:11;;;;;;;645.43;360.33;;;27.30;99.90;;;;;;4937147;29;20197;-81
2022/07/29 12:15:38;;;;;;;645.77;381.10;;;27.20;99.90;;;;;;4937830;29;20197;-83
2022/07/29 12:18:13;;;;;;;634.17;334.97;;;27.10;99.90;;;;;;4936757;29;20225;-84
2022/07/29 12:20:40;;;;;;;627.63;339.33;;;27.10;99.90;;;;;;4936664;29;20251;-85
2022/07/29 12:23:08;;;;;;;629.83;341.70;;;27.10;99.90;;;;;;4936881;29;20243;-84
2022/07/29 12:25:37;;;;;;;634.63;354.97;;;27.20;99.90;;;;;;4937315;29;20292;-82
2022/07/29 12:28:06;;;;;;;630.20;337.63;;;27.40;99.90;;;;;;4938561;29;20201;-84
2022/07/29 12:30:42;;;;;;;628.23;341.77;;;27.50;99.90;;;;;;4936085;29;20211;-83
2022/07/29 12:33:17;;;;;;;625.90;351.43;;;27.60;99.90;;;;;;4954671;29;20192;-83
2022/07/29 12:35:47;;;;;;;613.70;347.10;;;27.80;99.90;;;;;;4949580;28;20247;-83
2022/07/29 12:38:16;;;;;;;624.17;352.93;;;27.80;99.90;;;;;;4956253;29;20287;-84
2022/07/29 12:40:45;;;;;;;619.73;369.40;;;27.50;99.90;;;;;;4955782;29;20232;-84
2022/07/29 12:43:15;;;;;;;623.77;357.00;;;27.50;99.90;;;;;;4953774;29;20252;-83
2022/07/29 12:45:44;;;;;;;614.53;361.83;;;27.40;99.90;;;;;;4935920;29;20211;-84
2022/07/29 12:48:11;;;;;;;616.67;348.30;;;27.30;99.90;;;;;;4936380;29;20601;-84
2022/07/29 12:50:54;;;;;;;606.47;347.77;;;27.40;99.90;;;;;;4936517;29;20202;-82
2022/07/29 12:53:21;;;;;;;612.20;351.37;;;27.30;99.90;;;;;;4933416;29;20222;-85
2022/07/29 12:55:52;;;;;;;604.10;353.27;;;27.20;99.90;;;;;;4936271;29;20752;-83
2022/07/29 12:58:33;;;;;;;621.10;346.17;;;27.10;99.90;;;;;;4933790;29;20276;-83
2022/07/29 13:01:10;;;;;;;618.47;348.40;;;27.10;99.90;;;;;;4936037;29;20650;-83
2022/07/29 13:03:45;;;;;;;610.93;351.70;;;27.00;99.90;;;;;;4935770;29;20267;-84
2022/07/29 13:06:43;;;;;;;604.03;345.27;;;26.90;99.90;;;;;;4935693;29;20173;-83
2022/07/29 13:09:11;;;;;;;606.73;350.40;;;26.70;99.90;;;;;;4941235;29;21386;-82
2022/07/29 13:11:43;;;;;;;601.40;347.40;;;26.70;99.90;;;;;;4955168;29;20535;-82
2022/07/29 13:14:10;;;;;;;601.03;341.57;;;26.60;99.90;;;;;;4955338;28;20191;-82
2022/07/29 13:16:58;;;;;;;599.47;343.03;;;26.50;99.90;;;;;;4954814;28;20208;-83
2022/07/29 13:19:39;;;;;;;598.97;342.93;;;26.50;99.90;;;;;;4956836;28;20196;-83
2022/07/29 13:22:07;;;;;;;599.50;341.97;;;26.50;99.90;;;;;;4957618;29;20188;-83
2022/07/29 13:24:34;;;;;;;604.47;348.00;;;26.60;99.90;;;;;;4954844;29;20220;-82
2022/07/29 13:27:02;;;;;;;599.23;342.53;;;26.70;99.90;;;;;;4958691;28;20208;-86
2022/07/29 13:29:29;;;;;;;600.17;337.27;;;26.80;99.90;;;;;;4955664;28;20192;-83
2022/07/29 13:31:57;;;;;;;603.87;344.50;;;26.80;99.90;;;;;;4955185;28;20599;-84
2022/07/29 13:34:24;;;;;;;609.97;347.17;;;26.90;99.90;;;;;;4948921;29;20615;-85
2022/07/29 13:36:51;;;;;;;610.10;345.23;;;26.90;99.90;;;;;;4955514;28;20673;-83
2022/07/29 13:39:18;;;;;;;596.47;342.87;;;27.00;99.90;;;;;;4954939;28;20220;-88
2022/07/29 13:41:45;;;;;;;605.10;349.37;;;27.20;99.90;;;;;;4956401;28;20663;-87
2022/07/29 13:44:14;;;;;;;596.60;338.40;;;27.30;99.90;;;;;;4944407;29;20208;-85
2022/07/29 13:46:47;;;;;;;600.77;348.43;;;27.40;99.90;;;;;;4958333;29;20227;-88
2022/07/29 13:49:14;;;;;;;602.40;339.20;;;27.60;99.90;;;;;;4956350;28;20185;-87
2022/07/29 13:51:47;;;;;;;594.53;337.50;;;27.70;99.90;;;;;;4963405;29;20204;-91
2022/07/29 13:54:14;;;;;;;601.83;345.03;;;27.80;99.90;;;;;;4962725;28;20251;-86
2022/07/29 13:56:41;;;;;;;605.00;352.80;;;27.70;99.90;;;;;;4957441;28;20200;-84
2022/07/29 13:59:10;;;;;;;609.33;361.07;;;27.60;99.90;;;;;;4956463;28;20248;-89